sensor_id;sensor_type;location;lat;lon;timestamp;temperature;humidity
9271;DHT22;4673;53.458;9.940;2023-03-12T00:00:39;-0.50;99.90
9271;DHT22;4673;53.458;9.940;2023-03-12T00:03:05;-0.50;99.90
9271;DHT22;4673;53.458;9.940;2023-03-12T00:05:30;-0.50;99.90
9271;DHT22;4673;53.458;9.940;2023-03-12T00:07:56;-0.50;99.90
9271;DHT22;4673;53.458;9.940;2023-03-12T00:10:25;-0.50;99.90
9271;DHT22;4673;53.458;9.940;2023-03-12T00:12:51;-0.50;99.90
9271;DHT22;4673;53.458;9.940;2023-03-12T00:15:16;-0.50;99.90
9271;DHT22;4673;53.458;9.940;2023-03-12T00:17:42;-0.50;99.90
9271;DHT22;4673;53.458;9.940;2023-03-12T00:20:08;-0.50;99.90
9271;DHT22;4673;53.458;9.940;2023-03-12T00:22:37;-0.50;99.90
9271;DHT22;4673;53.458;9.940;2023-03-12T00:25:06;-0.50;99.90
9271;DHT22;4673;53.458;9.940;2023-03-12T00:27:32;-0.50;99.90
9271;DHT22;4673;53.458;9.940;2023-03-12T00:29:57;-0.50;99.90
9271;DHT22;4673;53.458;9.940;2023-03-12T00:32:23;-0.50;99.90
9271;DHT22;4673;53.458;9.940;2023-03-12T00:34:51;-0.40;99.90
9271;DHT22;4673;53.458;9.940;2023-03-12T00:37:16;-0.50;99.90
9271;DHT22;4673;53.458;9.940;2023-03-12T00:39:42;-0.50;99.90
9271;DHT22;4673;53.458;9.940;2023-03-12T00:42:08;-0.60;99.90
9271;DHT22;4673;53.458;9.940;2023-03-12T00:44:33;-0.60;99.90
9271;DHT22;4673;53.458;9.940;2023-03-12T00:46:59;-0.60;99.90
9271;DHT22;4673;53.458;9.940;2023-03-12T00:49:25;-0.70;99.90
9271;DHT22;4673;53.458;9.940;2023-03-12T00:51:50;-0.70;99.90
9271;DHT22;4673;53.458;9.940;2023-03-12T00:54:16;-0.70;99.90
9271;DHT22;4673;53.458;9.940;2023-03-12T00:56:42;-0.80;99.90
9271;DHT22;4673;53.458;9.940;2023-03-12T00:59:07;-0.70;99.90
9271;DHT22;4673;53.458;9.940;2023-03-12T01:01:33;-0.70;99.90
9271;DHT22;4673;53.458;9.940;2023-03-12T01:03:59;-0.70;99.90
9271;DHT22;4673;53.458;9.940;2023-03-12T01:06:24;-0.70;99.90
9271;DHT22;4673;53.458;9.940;2023-03-12T01:08:50;-0.60;99.90
9271;DHT22;4673;53.458;9.940;2023-03-12T01:11:18;-0.60;99.90
9271;DHT22;4673;53.458;9.940;2023-03-12T01:13:44;-0.60;99.90
9271;DHT22;4673;53.458;9.940;2023-03-12T01:16:10;-0.60;99.90
9271;DHT22;4673;53.458;9.940;2023-03-12T01:18:36;-0.70;99.90
9271;DHT22;4673;53.458;9.940;2023-03-12T01:21:02;-0.70;99.90
9271;DHT22;4673;53.458;9.940;2023-03-12T01:23:28;-0.80;99.90
9271;DHT22;4673;53.458;9.940;2023-03-12T01:25:53;-0.80;99.90
9271;DHT22;4673;53.458;9.940;2023-03-12T01:28:22;-0.90;99.90
9271;DHT22;4673;53.458;9.940;2023-03-12T01:30:49;-1.00;99.90
9271;DHT22;4673;53.458;9.940;2023-03-12T01:33:15;-1.00;99.90
9271;DHT22;4673;53.458;9.940;2023-03-12T01:35:41;-1.00;99.90
9271;DHT22;4673;53.458;9.940;2023-03-12T01:38:08;-1.00;99.90
9271;DHT22;4673;53.458;9.940;2023-03-12T01:40:35;-1.00;99.90
9271;DHT22;4673;53.458;9.940;2023-03-12T01:43:29;-1.00;99.90
9271;DHT22;4673;53.458;9.940;2023-03-12T01:51:45;-1.00;99.90
9271;DHT22;4673;53.458;9.940;2023-03-12T01:56:53;-1.10;99.90
9271;DHT22;4673;53.458;9.940;2023-03-12T01:59:23;-1.10;99.90
9271;DHT22;4673;53.458;9.940;2023-03-12T02:01:50;-1.10;99.90
9271;DHT22;4673;53.458;9.940;2023-03-12T02:04:18;-1.10;99.90
9271;DHT22;4673;53.458;9.940;2023-03-12T02:06:51;-1.00;99.90
9271;DHT22;4673;53.458;9.940;2023-03-12T02:09:19;-1.00;99.90
9271;DHT22;4673;53.458;9.940;2023-03-12T02:11:46;-1.10;99.90
9271;DHT22;4673;53.458;9.940;2023-03-12T02:14:11;-1.00;99.90
9271;DHT22;4673;53.458;9.940;2023-03-12T02:16:37;-1.00;99.90
9271;DHT22;4673;53.458;9.940;2023-03-12T02:19:07;-1.00;99.90
9271;DHT22;4673;53.458;9.940;2023-03-12T02:21:37;-1.10;99.90
9271;DHT22;4673;53.458;9.940;2023-03-12T02:26:45;-1.00;99.90
9271;DHT22;4673;53.458;9.940;2023-03-12T02:29:11;-1.00;99.90
9271;DHT22;4673;53.458;9.940;2023-03-12T02:31:46;-1.00;99.90
9271;DHT22;4673;53.458;9.940;2023-03-12T02:34:12;-1.00;99.90
9271;DHT22;4673;53.458;9.940;2023-03-12T02:36:38;-1.00;99.90
9271;DHT22;4673;53.458;9.940;2023-03-12T02:39:04;-0.90;99.90
9271;DHT22;4673;53.458;9.940;2023-03-12T02:41:33;-0.90;99.90
9271;DHT22;4673;53.458;9.940;2023-03-12T02:44:46;-0.80;99.90
9271;DHT22;4673;53.458;9.940;2023-03-12T02:46:55;-0.80;99.90
9271;DHT22;4673;53.458;9.940;2023-03-12T02:49:23;-0.70;99.90
9271;DHT22;4673;53.458;9.940;2023-03-12T02:51:49;-0.60;99.90
9271;DHT22;4673;53.458;9.940;2023-03-12T02:54:17;-0.50;99.90
9271;DHT22;4673;53.458;9.940;2023-03-12T02:56:43;-0.50;99.90
9271;DHT22;4673;53.458;9.940;2023-03-12T02:59:09;-0.50;99.90
9271;DHT22;4673;53.458;9.940;2023-03-12T03:01:36;-0.40;99.90
9271;DHT22;4673;53.458;9.940;2023-03-12T03:04:04;-0.30;99.90
9271;DHT22;4673;53.458;9.940;2023-03-12T03:06:30;-0.30;99.90
9271;DHT22;4673;53.458;9.940;2023-03-12T03:08:57;-0.30;99.90
9271;DHT22;4673;53.458;9.940;2023-03-12T03:11:25;-0.20;99.90
9271;DHT22;4673;53.458;9.940;2023-03-12T03:13:52;-0.20;99.90
9271;DHT22;4673;53.458;9.940;2023-03-12T03:16:18;-0.20;99.90
9271;DHT22;4673;53.458;9.940;2023-03-12T03:18:44;-0.20;99.90
9271;DHT22;4673;53.458;9.940;2023-03-12T03:21:10;-0.10;99.90
9271;DHT22;4673;53.458;9.940;2023-03-12T03:23:41;-0.10;99.90
9271;DHT22;4673;53.458;9.940;2023-03-12T03:26:08;-0.10;99.90
9271;DHT22;4673;53.458;9.940;2023-03-12T03:28:33;0.00;99.90
9271;DHT22;4673;53.458;9.940;2023-03-12T03:30:59;-0.10;99.90
9271;DHT22;4673;53.458;9.940;2023-03-12T03:33:29;-0.10;99.90
9271;DHT22;4673;53.458;9.940;2023-03-12T03:35:56;-0.30;99.90
9271;DHT22;4673;53.458;9.940;2023-03-12T03:38:24;-0.50;99.90
9271;DHT22;4673;53.458;9.940;2023-03-12T03:40:51;-0.50;99.90
9271;DHT22;4673;53.458;9.940;2023-03-12T03:43:16;-0.70;99.90
9271;DHT22;4673;53.458;9.940;2023-03-12T03:45:42;-0.90;99.90
9271;DHT22;4673;53.458;9.940;2023-03-12T03:48:12;-1.00;99.90
9271;DHT22;4673;53.458;9.940;2023-03-12T03:50:38;-1.00;99.90
9271;DHT22;4673;53.458;9.940;2023-03-12T03:53:05;-1.10;99.90
9271;DHT22;4673;53.458;9.940;2023-03-12T03:55:35;-1.20;99.90
9271;DHT22;4673;53.458;9.940;2023-03-12T03:58:01;-1.20;99.90
9271;DHT22;4673;53.458;9.940;2023-03-12T04:00:27;-1.20;99.90
9271;DHT22;4673;53.458;9.940;2023-03-12T04:02:55;-1.20;99.90
9271;DHT22;4673;53.458;9.940;2023-03-12T04:05:20;-1.20;99.90
9271;DHT22;4673;53.458;9.940;2023-03-12T04:07:46;-1.20;99.90
9271;DHT22;4673;53.458;9.940;2023-03-12T04:10:12;-1.30;99.90
9271;DHT22;4673;53.458;9.940;2023-03-12T04:12:38;-1.30;99.90
9271;DHT22;4673;53.458;9.940;2023-03-12T04:15:04;-1.40;99.90
9271;DHT22;4673;53.458;9.940;2023-03-12T04:17:30;-1.40;99.90
9271;DHT22;4673;53.458;9.940;2023-03-12T04:19:56;-1.50;99.90
9271;DHT22;4673;53.458;9.940;2023-03-12T04:22:21;-1.60;99.90
9271;DHT22;4673;53.458;9.940;2023-03-12T04:24:47;-1.60;99.90
9271;DHT22;4673;53.458;9.940;2023-03-12T04:27:12;-1.60;99.90
9271;DHT22;4673;53.458;9.940;2023-03-12T04:29:38;-1.70;99.90
9271;DHT22;4673;53.458;9.940;2023-03-12T04:32:05;-1.70;99.90
9271;DHT22;4673;53.458;9.940;2023-03-12T04:34:31;-1.70;99.90
9271;DHT22;4673;53.458;9.940;2023-03-12T04:36:57;-1.70;99.90
9271;DHT22;4673;53.458;9.940;2023-03-12T04:39:22;-1.70;99.90
9271;DHT22;4673;53.458;9.940;2023-03-12T04:41:48;-1.80;99.90
9271;DHT22;4673;53.458;9.940;2023-03-12T04:44:14;-1.70;99.90
9271;DHT22;4673;53.458;9.940;2023-03-12T04:46:40;-1.80;99.90
9271;DHT22;4673;53.458;9.940;2023-03-12T04:49:06;-1.80;99.90
9271;DHT22;4673;53.458;9.940;2023-03-12T04:51:32;-1.90;99.90
9271;DHT22;4673;53.458;9.940;2023-03-12T04:53:58;-2.00;99.90
9271;DHT22;4673;53.458;9.940;2023-03-12T04:56:24;-2.00;99.90
9271;DHT22;4673;53.458;9.940;2023-03-12T04:58:50;-2.00;99.90
9271;DHT22;4673;53.458;9.940;2023-03-12T05:01:24;-2.00;99.90
9271;DHT22;4673;53.458;9.940;2023-03-12T05:03:50;-1.90;99.90
9271;DHT22;4673;53.458;9.940;2023-03-12T05:06:16;-1.80;99.90
9271;DHT22;4673;53.458;9.940;2023-03-12T05:08:41;-1.80;99.90
9271;DHT22;4673;53.458;9.940;2023-03-12T05:11:07;-1.70;99.90
9271;DHT22;4673;53.458;9.940;2023-03-12T05:13:33;-1.50;99.90
9271;DHT22;4673;53.458;9.940;2023-03-12T05:15:58;-1.50;99.90
9271;DHT22;4673;53.458;9.940;2023-03-12T05:18:24;-1.40;99.90
9271;DHT22;4673;53.458;9.940;2023-03-12T05:21:03;-1.30;99.90
9271;DHT22;4673;53.458;9.940;2023-03-12T05:23:29;-1.20;99.90
9271;DHT22;4673;53.458;9.940;2023-03-12T05:25:54;-1.20;99.90
9271;DHT22;4673;53.458;9.940;2023-03-12T05:28:20;-1.10;99.90
9271;DHT22;4673;53.458;9.940;2023-03-12T05:30:47;-1.10;99.90
9271;DHT22;4673;53.458;9.940;2023-03-12T05:33:12;-1.00;99.90
9271;DHT22;4673;53.458;9.940;2023-03-12T05:35:38;-1.00;99.90
9271;DHT22;4673;53.458;9.940;2023-03-12T05:38:04;-1.00;99.90
9271;DHT22;4673;53.458;9.940;2023-03-12T05:40:29;-1.00;99.90
9271;DHT22;4673;53.458;9.940;2023-03-12T05:42:55;-0.90;99.90
9271;DHT22;4673;53.458;9.940;2023-03-12T05:45:21;-0.90;99.90
9271;DHT22;4673;53.458;9.940;2023-03-12T05:47:46;-0.80;99.90
9271;DHT22;4673;53.458;9.940;2023-03-12T05:50:31;-0.80;99.90
9271;DHT22;4673;53.458;9.940;2023-03-12T05:54:17;-0.70;99.90
9271;DHT22;4673;53.458;9.940;2023-03-12T06:11:49;-0.50;99.90
9271;DHT22;4673;53.458;9.940;2023-03-12T06:21:44;-0.20;99.90
9271;DHT22;4673;53.458;9.940;2023-03-12T06:30:25;-0.10;99.90
9271;DHT22;4673;53.458;9.940;2023-03-12T06:32:52;0.00;99.90
9271;DHT22;4673;53.458;9.940;2023-03-12T06:35:18;0.10;99.90
9271;DHT22;4673;53.458;9.940;2023-03-12T06:37:43;0.10;99.90
9271;DHT22;4673;53.458;9.940;2023-03-12T06:40:10;0.10;99.90
9271;DHT22;4673;53.458;9.940;2023-03-12T06:42:37;0.20;99.90
9271;DHT22;4673;53.458;9.940;2023-03-12T06:45:04;0.20;99.90
9271;DHT22;4673;53.458;9.940;2023-03-12T06:47:29;0.30;99.90
9271;DHT22;4673;53.458;9.940;2023-03-12T06:49:55;0.30;99.90
9271;DHT22;4673;53.458;9.940;2023-03-12T06:52:21;0.30;99.90
9271;DHT22;4673;53.458;9.940;2023-03-12T06:54:46;0.30;99.90
9271;DHT22;4673;53.458;9.940;2023-03-12T06:57:12;0.30;99.90
9271;DHT22;4673;53.458;9.940;2023-03-12T06:59:37;0.40;99.90
9271;DHT22;4673;53.458;9.940;2023-03-12T07:02:03;0.40;99.90
9271;DHT22;4673;53.458;9.940;2023-03-12T07:04:29;0.60;99.90
9271;DHT22;4673;53.458;9.940;2023-03-12T07:06:55;0.70;99.90
9271;DHT22;4673;53.458;9.940;2023-03-12T07:09:20;0.80;99.90
9271;DHT22;4673;53.458;9.940;2023-03-12T07:11:46;0.90;99.90
9271;DHT22;4673;53.458;9.940;2023-03-12T07:14:12;0.90;99.90
9271;DHT22;4673;53.458;9.940;2023-03-12T07:16:38;1.00;99.90
9271;DHT22;4673;53.458;9.940;2023-03-12T07:19:04;1.10;99.90
9271;DHT22;4673;53.458;9.940;2023-03-12T07:21:29;1.20;99.90
9271;DHT22;4673;53.458;9.940;2023-03-12T07:23:56;1.30;99.90
9271;DHT22;4673;53.458;9.940;2023-03-12T07:26:22;1.40;99.90
9271;DHT22;4673;53.458;9.940;2023-03-12T07:28:47;1.50;99.90
9271;DHT22;4673;53.458;9.940;2023-03-12T07:31:13;1.70;99.90
9271;DHT22;4673;53.458;9.940;2023-03-12T07:33:39;1.80;99.90
9271;DHT22;4673;53.458;9.940;2023-03-12T07:36:05;1.70;99.90
9271;DHT22;4673;53.458;9.940;2023-03-12T07:38:31;1.80;99.90
9271;DHT22;4673;53.458;9.940;2023-03-12T07:40:58;1.90;99.90
9271;DHT22;4673;53.458;9.940;2023-03-12T07:43:25;2.00;99.90
9271;DHT22;4673;53.458;9.940;2023-03-12T07:45:50;2.10;99.90
9271;DHT22;4673;53.458;9.940;2023-03-12T07:48:17;2.20;99.90
9271;DHT22;4673;53.458;9.940;2023-03-12T07:50:46;2.30;99.90
9271;DHT22;4673;53.458;9.940;2023-03-12T07:53:12;2.40;99.40
9271;DHT22;4673;53.458;9.940;2023-03-12T07:55:37;2.40;98.30
9271;DHT22;4673;53.458;9.940;2023-03-12T07:58:03;2.40;97.10
9271;DHT22;4673;53.458;9.940;2023-03-12T08:00:29;2.40;96.20
9271;DHT22;4673;53.458;9.940;2023-03-12T08:02:55;2.50;95.80
9271;DHT22;4673;53.458;9.940;2023-03-12T08:05:21;2.50;95.20
9271;DHT22;4673;53.458;9.940;2023-03-12T08:07:52;2.50;94.10
9271;DHT22;4673;53.458;9.940;2023-03-12T08:10:19;2.50;93.40
9271;DHT22;4673;53.458;9.940;2023-03-12T08:12:45;2.60;93.00
9271;DHT22;4673;53.458;9.940;2023-03-12T08:15:10;2.70;93.10
9271;DHT22;4673;53.458;9.940;2023-03-12T08:17:37;2.80;91.10
9271;DHT22;4673;53.458;9.940;2023-03-12T08:20:03;2.80;90.30
9271;DHT22;4673;53.458;9.940;2023-03-12T08:22:30;2.80;89.00
9271;DHT22;4673;53.458;9.940;2023-03-12T08:24:56;2.90;88.10
9271;DHT22;4673;53.458;9.940;2023-03-12T08:27:21;3.00;87.30
9271;DHT22;4673;53.458;9.940;2023-03-12T08:29:47;3.00;85.90
9271;DHT22;4673;53.458;9.940;2023-03-12T08:32:13;3.00;85.50
9271;DHT22;4673;53.458;9.940;2023-03-12T08:34:38;3.10;85.40
9271;DHT22;4673;53.458;9.940;2023-03-12T08:37:05;3.20;85.20
9271;DHT22;4673;53.458;9.940;2023-03-12T08:39:31;3.30;84.90
9271;DHT22;4673;53.458;9.940;2023-03-12T08:41:57;3.40;84.50
9271;DHT22;4673;53.458;9.940;2023-03-12T08:44:23;3.40;84.50
9271;DHT22;4673;53.458;9.940;2023-03-12T08:46:50;3.60;84.40
9271;DHT22;4673;53.458;9.940;2023-03-12T08:49:16;3.80;84.10
9271;DHT22;4673;53.458;9.940;2023-03-12T08:51:42;4.00;83.40
9271;DHT22;4673;53.458;9.940;2023-03-12T08:54:07;4.10;82.30
9271;DHT22;4673;53.458;9.940;2023-03-12T08:56:33;4.20;81.20
9271;DHT22;4673;53.458;9.940;2023-03-12T08:59:01;4.20;79.50
9271;DHT22;4673;53.458;9.940;2023-03-12T09:01:27;4.30;79.50
9271;DHT22;4673;53.458;9.940;2023-03-12T09:03:52;4.50;79.00
9271;DHT22;4673;53.458;9.940;2023-03-12T09:06:20;4.50;77.40
9271;DHT22;4673;53.458;9.940;2023-03-12T09:08:47;4.50;76.20
9271;DHT22;4673;53.458;9.940;2023-03-12T09:11:14;4.60;76.50
9271;DHT22;4673;53.458;9.940;2023-03-12T09:13:42;4.60;76.10
9271;DHT22;4673;53.458;9.940;2023-03-12T09:16:08;4.70;75.70
9271;DHT22;4673;53.458;9.940;2023-03-12T09:18:34;4.70;74.80
9271;DHT22;4673;53.458;9.940;2023-03-12T09:21:01;4.70;73.50
9271;DHT22;4673;53.458;9.940;2023-03-12T09:23:27;4.60;73.00
9271;DHT22;4673;53.458;9.940;2023-03-12T09:25:53;4.60;73.20
9271;DHT22;4673;53.458;9.940;2023-03-12T09:28:19;4.50;72.70
9271;DHT22;4673;53.458;9.940;2023-03-12T09:30:45;4.50;73.10
9271;DHT22;4673;53.458;9.940;2023-03-12T09:33:11;4.60;73.50
9271;DHT22;4673;53.458;9.940;2023-03-12T09:35:37;4.80;73.80
9271;DHT22;4673;53.458;9.940;2023-03-12T09:38:03;5.00;72.80
9271;DHT22;4673;53.458;9.940;2023-03-12T09:40:31;5.10;72.70
9271;DHT22;4673;53.458;9.940;2023-03-12T09:43:10;5.00;71.60
9271;DHT22;4673;53.458;9.940;2023-03-12T09:45:42;4.80;72.50
9271;DHT22;4673;53.458;9.940;2023-03-12T09:48:35;4.80;72.50
9271;DHT22;4673;53.458;9.940;2023-03-12T09:53:51;4.80;71.70
9271;DHT22;4673;53.458;9.940;2023-03-12T09:56:20;4.80;70.70
9271;DHT22;4673;53.458;9.940;2023-03-12T09:58:47;5.00;71.10
9271;DHT22;4673;53.458;9.940;2023-03-12T10:06:50;5.30;67.40
9271;DHT22;4673;53.458;9.940;2023-03-12T10:12:16;5.20;65.30
9271;DHT22;4673;53.458;9.940;2023-03-12T10:25:59;5.10;62.10
9271;DHT22;4673;53.458;9.940;2023-03-12T10:28:35;5.20;61.30
9271;DHT22;4673;53.458;9.940;2023-03-12T10:31:34;5.20;61.40
9271;DHT22;4673;53.458;9.940;2023-03-12T10:34:02;5.40;62.20
9271;DHT22;4673;53.458;9.940;2023-03-12T10:36:37;5.70;60.70
9271;DHT22;4673;53.458;9.940;2023-03-12T10:39:10;5.80;60.60
9271;DHT22;4673;53.458;9.940;2023-03-12T10:41:38;6.00;60.00
9271;DHT22;4673;53.458;9.940;2023-03-12T10:44:07;6.10;58.50
9271;DHT22;4673;53.458;9.940;2023-03-12T10:51:58;5.90;56.20
9271;DHT22;4673;53.458;9.940;2023-03-12T10:54:33;5.90;57.00
9271;DHT22;4673;53.458;9.940;2023-03-12T10:57:00;6.00;56.60
9271;DHT22;4673;53.458;9.940;2023-03-12T10:59:28;6.00;55.40
9271;DHT22;4673;53.458;9.940;2023-03-12T11:01:54;5.90;56.10
9271;DHT22;4673;53.458;9.940;2023-03-12T11:04:26;5.90;57.50
9271;DHT22;4673;53.458;9.940;2023-03-12T11:09:37;6.00;56.10
9271;DHT22;4673;53.458;9.940;2023-03-12T11:12:25;5.90;56.00
9271;DHT22;4673;53.458;9.940;2023-03-12T11:14:51;5.90;55.00
9271;DHT22;4673;53.458;9.940;2023-03-12T11:17:35;5.80;54.80
9271;DHT22;4673;53.458;9.940;2023-03-12T11:22:45;5.80;55.90
9271;DHT22;4673;53.458;9.940;2023-03-12T11:25:24;5.80;56.10
9271;DHT22;4673;53.458;9.940;2023-03-12T11:27:54;5.80;56.90
9271;DHT22;4673;53.458;9.940;2023-03-12T11:30:25;5.80;55.10
9271;DHT22;4673;53.458;9.940;2023-03-12T11:32:54;5.70;55.10
9271;DHT22;4673;53.458;9.940;2023-03-12T11:35:52;5.70;55.40
9271;DHT22;4673;53.458;9.940;2023-03-12T11:38:47;5.70;55.50
9271;DHT22;4673;53.458;9.940;2023-03-12T11:44:20;5.60;56.20
9271;DHT22;4673;53.458;9.940;2023-03-12T11:50:14;5.70;55.50
9271;DHT22;4673;53.458;9.940;2023-03-12T11:55:17;5.70;54.60
9271;DHT22;4673;53.458;9.940;2023-03-12T12:12:23;5.50;57.40
9271;DHT22;4673;53.458;9.940;2023-03-12T12:14:35;5.70;58.20
9271;DHT22;4673;53.458;9.940;2023-03-12T12:20:11;5.90;57.30
9271;DHT22;4673;53.458;9.940;2023-03-12T12:23:15;5.90;57.60
9271;DHT22;4673;53.458;9.940;2023-03-12T12:31:58;5.90;57.30
9271;DHT22;4673;53.458;9.940;2023-03-12T12:34:37;5.80;56.70
9271;DHT22;4673;53.458;9.940;2023-03-12T12:37:37;5.70;57.00
9271;DHT22;4673;53.458;9.940;2023-03-12T12:40:14;5.60;57.70
9271;DHT22;4673;53.458;9.940;2023-03-12T12:45:47;5.80;58.20
9271;DHT22;4673;53.458;9.940;2023-03-12T12:48:28;5.80;56.70
9271;DHT22;4673;53.458;9.940;2023-03-12T12:50:55;5.80;58.00
9271;DHT22;4673;53.458;9.940;2023-03-12T12:59:39;5.70;59.50
9271;DHT22;4673;53.458;9.940;2023-03-12T13:02:21;5.40;61.80
9271;DHT22;4673;53.458;9.940;2023-03-12T13:04:48;5.20;64.00
9271;DHT22;4673;53.458;9.940;2023-03-12T13:09:42;5.00;67.30
9271;DHT22;4673;53.458;9.940;2023-03-12T13:12:30;5.10;68.60
9271;DHT22;4673;53.458;9.940;2023-03-12T13:15:01;5.00;67.30
9271;DHT22;4673;53.458;9.940;2023-03-12T13:25:50;4.70;71.80
9271;DHT22;4673;53.458;9.940;2023-03-12T13:30:56;5.30;73.80
9271;DHT22;4673;53.458;9.940;2023-03-12T13:33:44;5.30;73.40
9271;DHT22;4673;53.458;9.940;2023-03-12T13:41:38;5.00;73.20
9271;DHT22;4673;53.458;9.940;2023-03-12T13:49:57;4.90;76.70
9271;DHT22;4673;53.458;9.940;2023-03-12T13:52:28;4.90;76.90
9271;DHT22;4673;53.458;9.940;2023-03-12T13:55:32;4.70;76.20
9271;DHT22;4673;53.458;9.940;2023-03-12T13:58:12;4.50;77.60
9271;DHT22;4673;53.458;9.940;2023-03-12T14:00:54;4.50;78.60
9271;DHT22;4673;53.458;9.940;2023-03-12T14:03:39;4.30;78.60
9271;DHT22;4673;53.458;9.940;2023-03-12T14:06:12;4.20;79.30
9271;DHT22;4673;53.458;9.940;2023-03-12T14:12:29;4.00;80.80
9271;DHT22;4673;53.458;9.940;2023-03-12T14:17:29;4.10;82.40
9271;DHT22;4673;53.458;9.940;2023-03-12T14:20:03;4.20;83.00
9271;DHT22;4673;53.458;9.940;2023-03-12T14:22:34;4.10;82.70
9271;DHT22;4673;53.458;9.940;2023-03-12T14:25:25;4.00;82.70
9271;DHT22;4673;53.458;9.940;2023-03-12T14:27:53;3.90;83.30
9271;DHT22;4673;53.458;9.940;2023-03-12T14:30:22;3.70;83.80
9271;DHT22;4673;53.458;9.940;2023-03-12T14:32:54;3.80;84.90
9271;DHT22;4673;53.458;9.940;2023-03-12T14:35:27;3.60;84.70
9271;DHT22;4673;53.458;9.940;2023-03-12T14:40:37;3.30;86.60
9271;DHT22;4673;53.458;9.940;2023-03-12T14:43:43;3.30;87.70
9271;DHT22;4673;53.458;9.940;2023-03-12T14:46:19;3.20;88.20
9271;DHT22;4673;53.458;9.940;2023-03-12T14:48:50;3.00;88.50
9271;DHT22;4673;53.458;9.940;2023-03-12T14:51:27;2.90;89.50
9271;DHT22;4673;53.458;9.940;2023-03-12T14:53:54;3.00;90.20
9271;DHT22;4673;53.458;9.940;2023-03-12T14:56:25;3.00;90.40
9271;DHT22;4673;53.458;9.940;2023-03-12T14:58:57;2.90;90.50
9271;DHT22;4673;53.458;9.940;2023-03-12T15:01:25;2.70;90.50
9271;DHT22;4673;53.458;9.940;2023-03-12T15:04:15;2.60;90.90
9271;DHT22;4673;53.458;9.940;2023-03-12T15:06:46;2.50;91.40
9271;DHT22;4673;53.458;9.940;2023-03-12T15:09:19;2.40;91.70
9271;DHT22;4673;53.458;9.940;2023-03-12T15:11:52;2.30;92.50
9271;DHT22;4673;53.458;9.940;2023-03-12T15:14:19;2.30;92.90
9271;DHT22;4673;53.458;9.940;2023-03-12T15:16:46;2.20;93.30
9271;DHT22;4673;53.458;9.940;2023-03-12T15:19:15;2.20;93.70
9271;DHT22;4673;53.458;9.940;2023-03-12T15:21:42;2.10;94.20
9271;DHT22;4673;53.458;9.940;2023-03-12T15:24:11;2.10;94.50
9271;DHT22;4673;53.458;9.940;2023-03-12T15:26:38;2.00;94.90
9271;DHT22;4673;53.458;9.940;2023-03-12T15:29:20;2.00;95.50
9271;DHT22;4673;53.458;9.940;2023-03-12T15:31:52;2.00;95.90
9271;DHT22;4673;53.458;9.940;2023-03-12T15:34:30;2.00;96.40
9271;DHT22;4673;53.458;9.940;2023-03-12T15:36:57;2.10;97.00
9271;DHT22;4673;53.458;9.940;2023-03-12T15:41:58;2.20;97.90
9271;DHT22;4673;53.458;9.940;2023-03-12T15:44:27;2.10;97.90
9271;DHT22;4673;53.458;9.940;2023-03-12T15:47:00;2.20;98.20
9271;DHT22;4673;53.458;9.940;2023-03-12T15:49:30;2.20;98.50
9271;DHT22;4673;53.458;9.940;2023-03-12T15:57:25;2.30;99.30
9271;DHT22;4673;53.458;9.940;2023-03-12T16:03:21;2.30;99.60
9271;DHT22;4673;53.458;9.940;2023-03-12T16:05:36;2.40;99.80
9271;DHT22;4673;53.458;9.940;2023-03-12T16:08:22;2.40;99.70
9271;DHT22;4673;53.458;9.940;2023-03-12T16:10:54;2.40;99.80
9271;DHT22;4673;53.458;9.940;2023-03-12T16:13:22;2.30;99.90
9271;DHT22;4673;53.458;9.940;2023-03-12T16:15:51;2.30;99.90
9271;DHT22;4673;53.458;9.940;2023-03-12T16:18:19;2.40;99.90
9271;DHT22;4673;53.458;9.940;2023-03-12T16:20:46;2.40;99.90
9271;DHT22;4673;53.458;9.940;2023-03-12T16:23:12;2.40;99.90
9271;DHT22;4673;53.458;9.940;2023-03-12T16:25:41;2.40;99.90
9271;DHT22;4673;53.458;9.940;2023-03-12T16:28:10;2.60;99.90
9271;DHT22;4673;53.458;9.940;2023-03-12T16:30:37;2.50;99.90
9271;DHT22;4673;53.458;9.940;2023-03-12T16:33:04;2.40;99.90
9271;DHT22;4673;53.458;9.940;2023-03-12T16:35:30;2.50;99.90
9271;DHT22;4673;53.458;9.940;2023-03-12T16:37:57;2.50;99.90
9271;DHT22;4673;53.458;9.940;2023-03-12T16:40:23;2.60;99.90
9271;DHT22;4673;53.458;9.940;2023-03-12T16:42:50;2.50;99.90
9271;DHT22;4673;53.458;9.940;2023-03-12T16:45:20;2.60;99.90
9271;DHT22;4673;53.458;9.940;2023-03-12T16:47:49;2.60;99.90
9271;DHT22;4673;53.458;9.940;2023-03-12T16:50:21;2.60;99.90
9271;DHT22;4673;53.458;9.940;2023-03-12T16:52:48;2.60;99.90
9271;DHT22;4673;53.458;9.940;2023-03-12T16:55:22;2.60;99.90
9271;DHT22;4673;53.458;9.940;2023-03-12T16:57:52;2.60;99.90
9271;DHT22;4673;53.458;9.940;2023-03-12T17:00:20;2.60;99.90
9271;DHT22;4673;53.458;9.940;2023-03-12T17:02:47;2.70;99.90
9271;DHT22;4673;53.458;9.940;2023-03-12T17:05:13;2.80;99.90
9271;DHT22;4673;53.458;9.940;2023-03-12T17:07:39;2.80;99.90
9271;DHT22;4673;53.458;9.940;2023-03-12T17:10:07;2.80;99.90
9271;DHT22;4673;53.458;9.940;2023-03-12T17:12:38;2.80;99.90
9271;DHT22;4673;53.458;9.940;2023-03-12T17:15:17;2.80;99.90
9271;DHT22;4673;53.458;9.940;2023-03-12T17:17:44;2.80;99.90
9271;DHT22;4673;53.458;9.940;2023-03-12T17:20:13;2.80;99.90
9271;DHT22;4673;53.458;9.940;2023-03-12T17:22:39;2.80;99.90
9271;DHT22;4673;53.458;9.940;2023-03-12T17:25:06;2.90;99.90
9271;DHT22;4673;53.458;9.940;2023-03-12T17:27:32;3.00;99.90
9271;DHT22;4673;53.458;9.940;2023-03-12T17:29:57;2.90;99.90
9271;DHT22;4673;53.458;9.940;2023-03-12T17:32:23;3.00;99.90
9271;DHT22;4673;53.458;9.940;2023-03-12T17:34:56;3.10;99.90
9271;DHT22;4673;53.458;9.940;2023-03-12T17:37:22;3.10;99.90
9271;DHT22;4673;53.458;9.940;2023-03-12T17:39:47;3.20;99.90
9271;DHT22;4673;53.458;9.940;2023-03-12T17:42:13;3.30;99.90
9271;DHT22;4673;53.458;9.940;2023-03-12T17:44:39;3.40;99.90
9271;DHT22;4673;53.458;9.940;2023-03-12T17:47:04;3.50;99.90
9271;DHT22;4673;53.458;9.940;2023-03-12T17:49:30;3.60;99.90
9271;DHT22;4673;53.458;9.940;2023-03-12T17:51:56;3.70;99.90
9271;DHT22;4673;53.458;9.940;2023-03-12T17:54:21;3.70;99.90
9271;DHT22;4673;53.458;9.940;2023-03-12T17:56:47;3.80;99.90
9271;DHT22;4673;53.458;9.940;2023-03-12T17:59:13;3.90;99.90
9271;DHT22;4673;53.458;9.940;2023-03-12T18:01:38;3.90;99.90
9271;DHT22;4673;53.458;9.940;2023-03-12T18:04:04;4.00;99.90
9271;DHT22;4673;53.458;9.940;2023-03-12T18:06:30;4.00;99.90
9271;DHT22;4673;53.458;9.940;2023-03-12T18:08:55;4.10;99.90
9271;DHT22;4673;53.458;9.940;2023-03-12T18:11:21;4.20;99.90
9271;DHT22;4673;53.458;9.940;2023-03-12T18:13:47;4.10;99.90
9271;DHT22;4673;53.458;9.940;2023-03-12T18:16:13;4.10;99.90
9271;DHT22;4673;53.458;9.940;2023-03-12T18:18:39;4.10;99.90
9271;DHT22;4673;53.458;9.940;2023-03-12T18:21:04;4.20;99.90
9271;DHT22;4673;53.458;9.940;2023-03-12T18:23:30;4.20;99.90
9271;DHT22;4673;53.458;9.940;2023-03-12T18:25:56;4.30;99.90
9271;DHT22;4673;53.458;9.940;2023-03-12T18:28:21;4.30;99.90
9271;DHT22;4673;53.458;9.940;2023-03-12T18:30:48;4.30;99.90
9271;DHT22;4673;53.458;9.940;2023-03-12T18:33:14;4.40;99.90
9271;DHT22;4673;53.458;9.940;2023-03-12T18:35:41;4.40;99.90
9271;DHT22;4673;53.458;9.940;2023-03-12T18:38:07;4.50;99.90
9271;DHT22;4673;53.458;9.940;2023-03-12T18:40:33;4.60;99.90
9271;DHT22;4673;53.458;9.940;2023-03-12T18:42:59;4.60;99.90
9271;DHT22;4673;53.458;9.940;2023-03-12T18:45:25;4.70;99.90
9271;DHT22;4673;53.458;9.940;2023-03-12T18:47:51;4.70;99.90
9271;DHT22;4673;53.458;9.940;2023-03-12T18:50:17;4.70;99.90
9271;DHT22;4673;53.458;9.940;2023-03-12T18:52:43;4.70;99.90
9271;DHT22;4673;53.458;9.940;2023-03-12T18:55:09;4.80;99.90
9271;DHT22;4673;53.458;9.940;2023-03-12T18:57:43;4.80;99.90
9271;DHT22;4673;53.458;9.940;2023-03-12T19:00:11;5.00;99.90
9271;DHT22;4673;53.458;9.940;2023-03-12T19:02:41;4.90;99.90